Aviation Digital Data Service (ADDS)

Output produced by METARs form (1604 UTC 03 December 2021)
found at http://www.aviationweather.gov/metar/data/
 
VTSP 031530Z 07006KT 030V090 9999 FEW020 SCT100 26/22 Q1014 NOSIG
VTSP 031500Z 07005KT 010V130 9999 FEW020 SCT100 26/22 Q1014 NOSIG
VTSP 031430Z 07007KT 020V100 9999 FEW020 27/23 Q1014 NOSIG
VTSP 031400Z 07008KT 030V090 9999 FEW020 27/23 Q1014 NOSIG
VTSP 031330Z 07008KT 030V090 9999 FEW020 27/23 Q1013 NOSIG
VTSP 031300Z 07010KT 9999 FEW020 28/23 Q1013 NOSIG
VTSP 031230Z 07008KT 020V090 9999 FEW020 28/23 Q1012 NOSIG
VTSP 031200Z 07005KT 020V100 9999 FEW020 28/23 Q1012 NOSIG
VTSP 031130Z 07004KT 340V110 9999 FEW020 28/23 Q1011 NOSIG
VTSP 031100Z VRB02KT 9999 FEW020 28/24 Q1011 NOSIG
VTSP 031030Z VRB02KT 9999 FEW020 29/24 Q1010 NOSIG
VTSP 031000Z VRB04KT 9999 FEW020 30/23 Q1010 NOSIG
VTSP 030930Z 06004KT 330V110 9999 FEW020 31/23 Q1010 NOSIG
VTSP 030900Z 06006KT 360V100 9999 FEW020 31/23 Q1010 NOSIG
VTSP 030830Z 07007KT 350V100 9999 FEW020 31/23 Q1009 NOSIG
VTSP 030800Z 07008KT 020V120 9999 FEW020 31/23 Q1010 NOSIG
VTSP 030730Z VRB04KT 9999 FEW020 31/23 Q1010 NOSIG
VTSP 030700Z 04005KT 330V090 9999 FEW020 30/23 Q1010 WS ALL RWY NOSIG
VTSP 030630Z 08008KT 030V110 9999 FEW020 31/23 Q1011 NOSIG
VTSP 030600Z 07005KT 360V120 9999 FEW020 30/23 Q1011 NOSIG
VTSP 030530Z 06005KT 300V110 9999 FEW020 30/24 Q1012 NOSIG
VTSP 030500Z 07009KT 340V110 9999 FEW020 30/24 Q1012 NOSIG
VTSP 030430Z 08011KT 9999 FEW020 30/23 Q1013 NOSIG
VTSP 030400Z VRB06KT 9999 FEW020 29/23 Q1013 NOSIG
VTSP 030330Z 07009KT 010V100 9999 FEW018 29/23 Q1013 NOSIG
VTSP 030300Z 08010KT 020V110 9999 FEW020 29/23 Q1013 NOSIG
VTSP 030230Z 07007KT 020V110 9999 FEW020 28/23 Q1013 NOSIG
VTSP 030200Z 07011KT 040V100 9999 FEW020 27/23 Q1013 NOSIG
VTSP 030130Z 07012KT 040V100 9999 FEW020 27/23 Q1013 NOSIG
VTSP 030100Z 07011KT 040V100 9999 FEW020 26/23 Q1013 NOSIG
VTSP 030030Z 07012KT 9999 FEW020 26/23 Q1012 NOSIG
VTSP 030000Z 08010KT 9999 FEW020 25/23 Q1012 NOSIG
VTSP 022330Z 08011KT 9999 FEW020 25/23 Q1011 NOSIG
VTSP 022300Z 08010KT 9999 FEW020 25/23 Q1011 NOSIG
VTSP 022230Z 08010KT 9999 FEW020 25/22 Q1011 NOSIG
VTSP 022200Z 08008KT 040V110 9999 FEW020 25/23 Q1011 NOSIG
VTSP 022130Z 08007KT 9999 FEW020 25/23 Q1011 NOSIG
VTSP 022100Z 08008KT 040V100 9999 FEW020 25/22 Q1010 NOSIG
VTSP 022030Z 08009KT 9999 FEW020 25/22 Q1010 NOSIG
VTSP 022000Z 08010KT 9999 FEW020 25/22 Q1011 NOSIG
VTSP 021930Z 08009KT 9999 FEW020 25/23 Q1011 NOSIG
VTSP 021900Z 08009KT 9999 FEW020 25/23 Q1011 NOSIG
VTSP 021830Z 09009KT 9999 FEW020 25/23 Q1011 NOSIG
VTSP 021800Z 09008KT 9999 FEW020 25/23 Q1012 NOSIG
VTSP 021730Z 08008KT 9999 FEW020 25/23 Q1012 NOSIG
VTSP 021700Z 08008KT 050V110 9999 FEW020 25/23 Q1012 NOSIG
VTSP 021630Z 08009KT 9999 FEW020 25/23 Q1012 NOSIG
VTSP 021600Z 08010KT 9999 FEW020 25/23 Q1012 NOSIG
VTSP 021530Z 08009KT 9999 FEW020 26/23 Q1012 NOSIG
TAF VTSP 031100Z 0312/0418 08008KT 9999 FEW020 
     PROB40 
     TEMPO 0412/0416 08015G25KT 3000 TSRA FEW016CB SCT020 BKN100